createdAt,value
2018-12-05T00:01:53.998Z,5.97
2018-12-05T00:04:21.644Z,5.90
2018-12-05T00:06:49.153Z,6.00
2018-12-05T00:09:16.660Z,5.73
2018-12-05T00:11:44.176Z,6.57
2018-12-05T00:14:11.868Z,6.07
2018-12-05T00:16:39.489Z,6.07
2018-12-05T00:19:06.991Z,5.57
2018-12-05T00:21:34.498Z,5.43
2018-12-05T00:24:02.009Z,5.67
2018-12-05T00:26:29.511Z,5.73
2018-12-05T00:28:57.029Z,6.23
2018-12-05T00:31:24.530Z,5.80
2018-12-05T00:33:52.052Z,6.33
2018-12-05T00:36:19.565Z,6.17
2018-12-05T00:38:47.078Z,6.07
2018-12-05T00:41:14.591Z,5.67
2018-12-05T00:43:42.119Z,5.70
2018-12-05T00:46:09.631Z,5.90
2018-12-05T00:48:37.132Z,5.23
2018-12-05T00:51:04.641Z,6.70
2018-12-05T00:53:32.150Z,5.77
2018-12-05T00:55:59.669Z,6.20
2018-12-05T00:58:27.174Z,5.70
2018-12-05T01:00:54.685Z,5.37
2018-12-05T01:03:22.172Z,5.00
2018-12-05T01:05:49.679Z,5.30
2018-12-05T01:08:17.196Z,4.97
2018-12-05T01:10:44.693Z,6.13
2018-12-05T01:13:12.200Z,4.80
2018-12-05T01:15:39.704Z,5.30
2018-12-05T01:18:07.220Z,6.53
2018-12-05T01:20:34.730Z,6.77
2018-12-05T01:23:02.269Z,6.93
2018-12-05T01:25:29.848Z,6.73
2018-12-05T01:27:57.349Z,6.77
2018-12-05T01:30:24.869Z,6.63
2018-12-05T01:32:52.375Z,7.53
2018-12-05T01:35:19.888Z,7.10
2018-12-05T01:37:47.486Z,6.50
2018-12-05T01:40:14.990Z,7.20
2018-12-05T01:42:42.586Z,7.53
2018-12-05T01:45:10.095Z,6.17
2018-12-05T01:47:37.608Z,7.13
2018-12-05T01:50:05.793Z,8.23
2018-12-05T01:52:33.311Z,8.63
2018-12-05T01:55:00.824Z,7.17
2018-12-05T01:57:28.342Z,8.63
2018-12-05T01:59:56.191Z,8.47
2018-12-05T02:02:23.717Z,8.00
2018-12-05T02:04:51.231Z,8.43
2018-12-05T02:07:18.849Z,8.37
2018-12-05T02:09:46.645Z,9.07
2018-12-05T02:12:14.155Z,8.20
2018-12-05T02:14:41.680Z,8.07
2018-12-05T02:17:09.202Z,8.13
2018-12-05T02:19:36.715Z,8.00
2018-12-05T02:22:04.289Z,8.60
2018-12-05T02:24:31.803Z,9.00
2018-12-05T02:26:59.314Z,7.60
2018-12-05T02:29:37.682Z,7.23
2018-12-05T02:32:05.267Z,7.70
2018-12-05T02:34:32.779Z,7.43
2018-12-05T02:37:00.383Z,7.73
2018-12-05T02:39:28.096Z,6.93
2018-12-05T02:41:55.610Z,7.40
2018-12-05T02:44:23.127Z,7.37
2018-12-05T02:46:50.677Z,7.73
2018-12-05T02:49:18.290Z,8.43
2018-12-05T02:51:45.798Z,9.80
2018-12-05T02:54:13.314Z,8.73
2018-12-05T02:56:40.833Z,8.47
2018-12-05T02:59:08.357Z,8.30
2018-12-05T03:01:35.889Z,8.43
2018-12-05T03:04:03.482Z,8.53
2018-12-05T03:06:31.009Z,8.23
2018-12-05T03:08:58.521Z,9.97
2018-12-05T03:11:26.039Z,9.17
2018-12-05T03:13:53.560Z,10.50
2018-12-05T03:16:21.097Z,10.20
2018-12-05T03:18:48.603Z,9.13
2018-12-05T03:21:16.120Z,9.83
2018-12-05T03:23:43.642Z,9.13
2018-12-05T03:26:11.167Z,10.63
2018-12-05T03:28:38.684Z,10.33
2018-12-05T03:31:06.197Z,9.13
2018-12-05T03:33:33.712Z,10.63
2018-12-05T03:36:01.230Z,11.50
2018-12-05T03:38:28.738Z,18.33
2018-12-05T03:40:56.260Z,14.20
2018-12-05T03:43:23.758Z,12.57
2018-12-05T03:45:51.332Z,13.87
2018-12-05T03:48:18.850Z,10.97
2018-12-05T03:50:46.370Z,12.30
2018-12-05T03:53:13.844Z,11.07
2018-12-05T03:55:41.353Z,13.20
2018-12-05T03:58:08.874Z,13.43
2018-12-05T04:00:36.393Z,10.77
2018-12-05T04:03:04.884Z,11.10
2018-12-05T04:05:32.402Z,11.47
2018-12-05T04:08:00.324Z,11.67
2018-12-05T04:10:27.834Z,12.57
2018-12-05T04:12:55.349Z,11.00
2018-12-05T04:15:22.865Z,12.73
2018-12-05T04:17:50.395Z,11.37
2018-12-05T04:20:17.924Z,11.23
2018-12-05T04:22:45.553Z,13.43
2018-12-05T04:25:13.126Z,11.63
2018-12-05T04:27:40.648Z,11.77
2018-12-05T04:30:08.158Z,12.63
2018-12-05T04:32:35.676Z,15.30
2018-12-05T04:35:03.194Z,16.87
2018-12-05T04:37:30.702Z,12.50
2018-12-05T04:39:58.231Z,12.13
2018-12-05T04:42:25.734Z,11.80
2018-12-05T04:44:53.271Z,13.23
2018-12-05T04:47:20.797Z,15.47
2018-12-05T04:49:48.309Z,12.60
2018-12-05T04:52:15.842Z,17.57
2018-12-05T04:54:43.382Z,13.93
2018-12-05T04:57:10.982Z,11.03
2018-12-05T04:59:38.497Z,13.30
2018-12-05T05:02:06.106Z,15.67
2018-12-05T05:04:33.618Z,14.37
2018-12-05T05:07:01.140Z,14.03
2018-12-05T05:09:28.674Z,13.17
2018-12-05T05:11:56.191Z,13.60
2018-12-05T05:14:23.729Z,14.00
2018-12-05T05:16:51.258Z,16.07
2018-12-05T05:19:18.775Z,14.73
2018-12-05T05:21:46.300Z,13.63
2018-12-05T05:24:14.527Z,16.90
2018-12-05T05:26:42.039Z,14.87
2018-12-05T05:29:09.641Z,12.80
2018-12-05T05:31:37.195Z,15.40
2018-12-05T05:34:04.713Z,15.33
2018-12-05T05:36:32.249Z,15.40
2018-12-05T05:38:59.781Z,15.63
2018-12-05T05:41:27.313Z,16.33
2018-12-05T05:43:54.883Z,14.77
2018-12-05T05:46:22.387Z,18.87
2018-12-05T05:48:49.909Z,21.33
2018-12-05T05:51:17.442Z,18.13
2018-12-05T05:53:44.952Z,16.97
2018-12-05T05:56:12.473Z,18.93
2018-12-05T05:58:39.973Z,18.20
2018-12-05T06:01:07.496Z,21.43
2018-12-05T06:03:35.035Z,17.63
2018-12-05T06:06:02.563Z,14.87
2018-12-05T06:08:30.080Z,14.63
2018-12-05T06:10:57.645Z,13.47
2018-12-05T06:13:25.172Z,13.93
2018-12-05T06:15:52.709Z,14.53
2018-12-05T06:18:20.231Z,13.63
2018-12-05T06:20:47.749Z,13.30
2018-12-05T06:23:15.306Z,11.77
2018-12-05T06:25:42.824Z,11.23
2018-12-05T06:28:10.340Z,10.67
2018-12-05T06:30:37.846Z,8.93
2018-12-05T06:33:05.366Z,8.73
2018-12-05T06:35:32.869Z,8.30
2018-12-05T06:38:00.379Z,11.30
2018-12-05T06:40:27.895Z,12.67
2018-12-05T06:42:55.417Z,15.97
2018-12-05T06:45:22.935Z,13.23
2018-12-05T06:47:50.452Z,11.13
2018-12-05T06:50:17.974Z,13.50
2018-12-05T06:52:45.515Z,17.30
2018-12-05T06:55:13.024Z,9.87
2018-12-05T06:57:40.550Z,10.70
2018-12-05T07:00:08.325Z,8.77
2018-12-05T07:02:35.873Z,12.63
2018-12-05T07:05:03.667Z,13.90
2018-12-05T07:07:31.188Z,12.30
2018-12-05T07:09:58.698Z,10.80
2018-12-05T07:12:26.227Z,13.80
2018-12-05T07:14:53.746Z,10.93
2018-12-05T07:17:21.292Z,13.60
2018-12-05T07:19:48.807Z,11.83
2018-12-05T07:22:16.343Z,11.17
2018-12-05T07:24:43.866Z,12.60
2018-12-05T07:27:11.382Z,10.40
2018-12-05T07:29:38.894Z,10.33
2018-12-05T07:32:06.478Z,10.60
2018-12-05T07:34:33.992Z,11.40
2018-12-05T07:37:01.558Z,13.53
2018-12-05T07:39:29.071Z,9.50
2018-12-05T07:41:56.602Z,9.70
2018-12-05T07:44:24.126Z,8.47
2018-12-05T07:46:51.646Z,11.80
2018-12-05T07:49:19.168Z,7.97
2018-12-05T07:51:46.689Z,10.23
2018-12-05T07:54:14.199Z,9.43
2018-12-05T07:56:41.825Z,10.73
2018-12-05T07:59:09.342Z,9.33
2018-12-05T08:01:36.856Z,8.43
2018-12-05T08:04:04.468Z,9.40
2018-12-05T08:06:31.982Z,8.60
2018-12-05T08:08:59.501Z,8.80
2018-12-05T08:11:27.017Z,9.47
2018-12-05T08:13:54.538Z,10.77
2018-12-05T08:16:22.089Z,10.67
2018-12-05T08:18:49.608Z,9.07
2018-12-05T08:21:17.114Z,7.63
2018-12-05T08:23:44.623Z,7.97
2018-12-05T08:26:12.153Z,8.13
2018-12-05T08:28:39.666Z,7.37
2018-12-05T08:31:07.180Z,8.57
2018-12-05T08:33:34.681Z,8.00
2018-12-05T08:36:02.179Z,8.07
2018-12-05T08:38:29.692Z,7.60
2018-12-05T08:40:57.202Z,7.13
2018-12-05T08:43:24.746Z,7.47
2018-12-05T08:45:52.486Z,10.37
2018-12-05T08:48:20.155Z,8.20
2018-12-05T08:50:48.014Z,16.07
2018-12-05T08:53:15.981Z,7.57
2018-12-05T08:55:43.802Z,7.83
2018-12-05T08:58:11.611Z,7.93
2018-12-05T09:00:39.424Z,8.40
2018-12-05T09:03:06.926Z,10.17
2018-12-05T09:05:34.457Z,10.10
2018-12-05T09:08:01.940Z,9.93
2018-12-05T09:10:29.433Z,9.83
2018-12-05T09:12:56.941Z,10.47
2018-12-05T09:15:24.454Z,8.77
2018-12-05T09:17:51.959Z,8.40
2018-12-05T09:20:19.478Z,8.90
2018-12-05T09:22:46.982Z,8.57
2018-12-05T09:25:14.513Z,9.43
2018-12-05T09:27:42.029Z,8.40
2018-12-05T09:30:09.647Z,8.77
2018-12-05T09:32:37.165Z,8.50
2018-12-05T09:35:05.441Z,9.87
2018-12-05T09:37:32.991Z,8.13
2018-12-05T09:40:00.513Z,8.97
2018-12-05T09:42:28.106Z,8.77
2018-12-05T09:44:55.649Z,9.27
2018-12-05T09:47:23.161Z,7.90
2018-12-05T09:49:50.659Z,7.50
2018-12-05T09:52:18.188Z,8.10
2018-12-05T09:54:45.697Z,8.97
2018-12-05T09:57:13.222Z,10.23
2018-12-05T09:59:40.731Z,9.67
2018-12-05T10:02:08.254Z,9.27
2018-12-05T10:04:35.767Z,9.60
2018-12-05T10:07:03.292Z,9.87
2018-12-05T10:09:30.801Z,9.30
2018-12-05T10:11:58.318Z,10.03
2018-12-05T10:14:25.953Z,10.07
2018-12-05T10:16:53.490Z,9.77
2018-12-05T10:19:20.995Z,10.00
2018-12-05T10:21:48.524Z,11.03
2018-12-05T10:24:16.032Z,9.40
2018-12-05T10:26:43.555Z,10.83
2018-12-05T10:29:11.125Z,8.47
2018-12-05T10:31:43.929Z,8.27
2018-12-05T10:34:08.192Z,9.00
2018-12-05T10:36:35.704Z,9.70
2018-12-05T10:39:05.812Z,11.47
2018-12-05T10:41:33.423Z,10.43
2018-12-05T10:44:00.937Z,10.20
2018-12-05T10:46:28.541Z,10.60
2018-12-05T10:48:56.056Z,10.57
2018-12-05T10:51:23.587Z,10.47
2018-12-05T10:53:51.094Z,10.53
2018-12-05T10:56:19.034Z,10.00
2018-12-05T10:58:46.807Z,11.00
2018-12-05T11:01:19.962Z,11.67
2018-12-05T11:03:47.485Z,10.73
2018-12-05T11:06:16.966Z,11.87
2018-12-05T11:15:03.291Z,10.00
2018-12-05T11:17:36.447Z,11.60
2018-12-05T11:20:10.862Z,10.90
2018-12-05T11:22:44.025Z,11.43
2018-12-05T11:25:12.132Z,11.67
2018-12-05T11:27:39.650Z,10.47
2018-12-05T11:30:07.683Z,10.77
2018-12-05T11:32:35.204Z,11.37
2018-12-05T11:35:02.715Z,12.30
2018-12-05T11:37:30.251Z,12.97
2018-12-05T11:39:57.824Z,12.83
2018-12-05T11:42:25.338Z,11.77
2018-12-05T11:44:52.873Z,13.17
2018-12-05T11:47:20.409Z,13.27
2018-12-05T11:49:47.939Z,12.53
2018-12-05T11:52:15.453Z,12.97
2018-12-05T11:54:42.970Z,11.30
2018-12-05T11:57:10.520Z,11.93
2018-12-05T11:59:38.065Z,12.27
2018-12-05T12:02:05.582Z,15.10
2018-12-05T12:04:33.101Z,15.13
2018-12-05T12:07:00.613Z,15.33
2018-12-05T12:09:28.148Z,14.00
2018-12-05T12:11:55.730Z,12.17
2018-12-05T12:14:23.267Z,12.20
2018-12-05T12:16:50.972Z,10.00
2018-12-05T12:19:18.523Z,10.17
2018-12-05T12:21:46.045Z,10.07
2018-12-05T12:24:14.205Z,9.50
2018-12-05T12:26:41.721Z,10.67
2018-12-05T12:29:09.245Z,10.70
2018-12-05T12:31:36.772Z,10.87
2018-12-05T12:34:04.446Z,10.23
2018-12-05T12:36:31.939Z,11.40
2018-12-05T12:38:59.477Z,11.30
2018-12-05T12:41:26.987Z,11.07
2018-12-05T12:43:54.532Z,10.93
2018-12-05T12:46:22.062Z,11.27
2018-12-05T12:48:49.577Z,11.90
2018-12-05T12:51:17.138Z,12.70
2018-12-05T12:53:44.728Z,18.33
2018-12-05T12:56:12.261Z,15.50
2018-12-05T12:58:39.795Z,16.73
2018-12-05T13:01:07.345Z,33.90
2018-12-05T13:03:34.863Z,22.60
2018-12-05T13:06:02.389Z,17.13
2018-12-05T13:08:29.906Z,14.80
2018-12-05T13:10:57.427Z,16.50
2018-12-05T13:13:24.953Z,16.83
2018-12-05T13:15:52.594Z,17.07
2018-12-05T13:18:20.229Z,13.93
2018-12-05T13:20:47.814Z,14.17
2018-12-05T13:23:15.326Z,14.87
2018-12-05T13:25:42.905Z,11.10
2018-12-05T13:28:10.434Z,12.27
2018-12-05T13:30:37.972Z,10.17
2018-12-05T13:33:05.493Z,9.00
2018-12-05T13:35:33.150Z,9.07
2018-12-05T13:38:00.748Z,9.13
2018-12-05T13:40:28.365Z,8.50
2018-12-05T13:42:55.875Z,8.83
2018-12-05T13:45:23.407Z,8.63
2018-12-05T13:47:50.993Z,8.27
2018-12-05T13:50:18.507Z,8.43
2018-12-05T13:52:46.033Z,10.43
2018-12-05T13:55:13.571Z,10.23
2018-12-05T13:57:41.100Z,10.67
2018-12-05T14:00:09.330Z,10.40
2018-12-05T14:02:36.868Z,10.17
2018-12-05T14:05:04.673Z,10.20
2018-12-05T14:07:32.244Z,10.23
2018-12-05T14:09:59.839Z,10.57
2018-12-05T14:12:27.557Z,10.83
2018-12-05T14:14:55.376Z,10.33
2018-12-05T14:17:22.887Z,9.37
2018-12-05T14:19:50.446Z,9.63
2018-12-05T14:22:18.035Z,9.87
2018-12-05T14:24:45.562Z,9.27
2018-12-05T14:27:13.090Z,8.97
2018-12-05T14:29:40.615Z,9.50
2018-12-05T14:32:08.136Z,9.00
2018-12-05T14:34:35.644Z,9.50
2018-12-05T14:37:03.207Z,9.90
2018-12-05T14:39:30.731Z,8.53
2018-12-05T14:41:58.230Z,9.43
2018-12-05T14:44:25.750Z,9.00
2018-12-05T14:46:53.314Z,9.03
2018-12-05T14:49:20.829Z,8.47
2018-12-05T14:51:48.340Z,8.53
2018-12-05T14:54:15.857Z,8.20
2018-12-05T14:56:43.419Z,8.60
2018-12-05T14:59:11.076Z,8.80
2018-12-05T15:01:38.567Z,8.03
2018-12-05T15:04:06.099Z,8.53
2018-12-05T15:06:33.628Z,8.33
2018-12-05T15:09:01.137Z,8.67
2018-12-05T15:11:28.740Z,8.13
2018-12-05T15:13:56.273Z,9.73
2018-12-05T15:16:23.788Z,9.33
2018-12-05T15:18:51.313Z,10.00
2018-12-05T15:21:18.830Z,11.80
2018-12-05T15:23:46.359Z,12.37
2018-12-05T15:26:13.870Z,10.87
2018-12-05T15:28:41.390Z,11.90
2018-12-05T15:31:08.960Z,11.97
2018-12-05T15:33:36.582Z,11.30
2018-12-05T15:36:04.126Z,11.30
2018-12-05T15:38:31.649Z,12.30
2018-12-05T15:40:59.209Z,17.20
2018-12-05T15:43:26.735Z,20.17
2018-12-05T15:45:54.268Z,18.37
2018-12-05T15:48:21.811Z,14.47
2018-12-05T15:50:49.639Z,13.57
2018-12-05T15:53:17.224Z,13.50
2018-12-05T15:55:44.910Z,11.90
2018-12-05T15:58:12.418Z,12.43
2018-12-05T16:00:39.954Z,13.57
2018-12-05T16:03:07.471Z,16.37
2018-12-05T16:05:35.001Z,13.40
2018-12-05T16:08:02.515Z,10.47
2018-12-05T16:10:30.044Z,10.13
2018-12-05T16:12:57.657Z,8.83
2018-12-05T16:15:25.252Z,9.50
2018-12-05T16:17:52.896Z,10.93
2018-12-05T16:20:20.402Z,13.63
2018-12-05T16:22:47.935Z,12.33
2018-12-05T16:25:15.772Z,9.97
2018-12-05T16:27:43.325Z,9.87
2018-12-05T16:30:10.903Z,9.73
2018-12-05T16:32:38.430Z,10.57
2018-12-05T16:35:06.044Z,9.90
2018-12-05T16:37:33.648Z,11.33
2018-12-05T16:40:01.180Z,11.20
2018-12-05T16:42:28.698Z,11.40
2018-12-05T16:44:56.220Z,10.60
2018-12-05T16:47:23.750Z,14.77
2018-12-05T16:49:51.271Z,14.73
2018-12-05T16:52:18.797Z,14.73
2018-12-05T16:54:46.313Z,15.53
2018-12-05T16:57:13.951Z,13.33
2018-12-05T16:59:41.472Z,12.20
2018-12-05T17:02:09.060Z,13.47
2018-12-05T17:04:36.616Z,11.33
2018-12-05T17:07:04.251Z,10.07
2018-12-05T17:09:31.788Z,10.70
2018-12-05T17:11:59.316Z,11.73
2018-12-05T17:14:27.081Z,17.93
2018-12-05T17:16:54.921Z,15.43
2018-12-05T17:19:22.487Z,19.03
2018-12-05T17:21:50.023Z,14.10
2018-12-05T17:24:17.557Z,13.70
2018-12-05T17:26:45.135Z,12.07
2018-12-05T17:29:12.666Z,12.57
2018-12-05T17:36:30.191Z,10.43
2018-12-05T17:38:57.710Z,9.50
2018-12-05T17:41:25.241Z,9.23
2018-12-05T17:43:52.839Z,10.30
2018-12-05T17:46:20.345Z,16.97
2018-12-05T17:48:47.874Z,13.77
2018-12-05T17:51:15.411Z,8.57
2018-12-05T17:53:42.948Z,6.53
2018-12-05T17:56:10.513Z,6.20
2018-12-05T17:58:38.075Z,7.13
2018-12-05T18:01:05.646Z,6.17
2018-12-05T18:03:33.246Z,6.57
2018-12-05T18:06:00.867Z,6.33
2018-12-05T18:08:28.423Z,6.47
2018-12-05T18:10:57.073Z,5.73
2018-12-05T18:13:24.769Z,7.03
2018-12-05T18:15:52.284Z,6.30
2018-12-05T18:18:19.807Z,9.53
2018-12-05T18:20:47.320Z,6.63
2018-12-05T18:23:14.937Z,6.43
2018-12-05T18:25:43.468Z,6.67
2018-12-05T18:28:11.025Z,5.93
2018-12-05T18:30:38.568Z,8.07
2018-12-05T18:33:06.083Z,6.20
2018-12-05T18:35:33.594Z,5.87
2018-12-05T18:38:01.093Z,5.80
2018-12-05T18:40:28.669Z,5.60
2018-12-05T18:42:56.251Z,5.00
2018-12-05T18:45:23.772Z,5.50
2018-12-05T18:47:51.301Z,5.60
2018-12-05T18:50:18.926Z,5.43
2018-12-05T18:52:46.460Z,4.80
2018-12-05T18:55:14.091Z,5.20
2018-12-05T18:57:41.607Z,4.83
2018-12-05T19:00:09.412Z,5.33
2018-12-05T19:02:36.936Z,5.70
2018-12-05T19:05:05.251Z,6.20
2018-12-05T19:07:32.788Z,6.43
2018-12-05T19:10:00.310Z,6.23
2018-12-05T19:12:27.827Z,6.30
2018-12-05T19:14:55.402Z,6.93
2018-12-05T19:17:22.934Z,5.60
2018-12-05T19:19:50.490Z,4.40
2018-12-05T19:22:18.158Z,4.57
2018-12-05T19:24:45.792Z,4.70
2018-12-05T19:27:13.322Z,4.60
2018-12-05T19:29:40.838Z,4.30
2018-12-05T19:32:08.374Z,4.73
2018-12-05T19:34:35.890Z,4.13
2018-12-05T19:37:03.420Z,4.90
2018-12-05T19:39:30.944Z,4.43
2018-12-05T19:41:58.518Z,4.20
2018-12-05T19:44:26.033Z,4.40
2018-12-05T19:46:53.543Z,4.33
2018-12-05T19:49:21.060Z,4.63
2018-12-05T19:51:48.570Z,4.60
2018-12-05T19:54:16.203Z,4.60
2018-12-05T19:56:43.722Z,4.57
2018-12-05T19:59:11.316Z,3.93
2018-12-05T20:01:38.835Z,4.67
2018-12-05T20:04:06.357Z,4.70
2018-12-05T20:06:33.886Z,4.80
2018-12-05T20:09:01.403Z,3.93
2018-12-05T20:11:28.922Z,4.03
2018-12-05T20:13:56.424Z,4.17
2018-12-05T20:16:23.947Z,4.30
2018-12-05T20:18:51.457Z,4.43
2018-12-05T20:21:18.955Z,4.70
2018-12-05T20:23:46.495Z,4.40
2018-12-05T20:26:14.031Z,4.30
2018-12-05T20:28:42.318Z,4.77
2018-12-05T20:31:10.084Z,7.07
2018-12-05T20:33:37.642Z,12.07
2018-12-05T20:36:05.153Z,9.03
2018-12-05T20:38:32.777Z,5.23
2018-12-05T20:41:00.334Z,5.37
2018-12-05T20:43:27.853Z,5.77
2018-12-05T20:45:55.373Z,5.67
2018-12-05T20:48:22.887Z,5.67
2018-12-05T20:50:50.420Z,5.37
2018-12-05T20:53:17.962Z,5.13
2018-12-05T20:55:45.480Z,5.23
2018-12-05T20:58:13.091Z,4.87
2018-12-05T21:00:40.616Z,4.60
2018-12-05T21:03:08.118Z,4.20
2018-12-05T21:05:35.646Z,4.00
2018-12-05T21:08:03.162Z,3.97
2018-12-05T21:10:30.685Z,3.80
2018-12-05T21:12:58.302Z,4.73
2018-12-05T21:15:25.816Z,4.17
2018-12-05T21:17:53.339Z,4.00
2018-12-05T21:20:20.864Z,4.17
2018-12-05T21:22:48.381Z,3.87
2018-12-05T21:25:15.869Z,4.20
2018-12-05T21:27:43.385Z,7.00
2018-12-05T21:30:11.005Z,7.27
2018-12-05T21:32:38.522Z,4.77
2018-12-05T21:35:06.115Z,3.80
2018-12-05T21:37:33.617Z,4.03
2018-12-05T21:40:01.127Z,4.33
2018-12-05T21:42:28.635Z,4.07
2018-12-05T21:44:56.309Z,4.30
2018-12-05T21:47:23.878Z,4.63
2018-12-05T21:49:51.387Z,5.13
2018-12-05T21:52:18.881Z,4.00
2018-12-05T21:54:46.387Z,3.90
2018-12-05T21:57:13.888Z,4.27
2018-12-05T21:59:41.394Z,4.80
2018-12-05T22:02:08.899Z,3.47
2018-12-05T22:04:36.414Z,3.93
2018-12-05T22:07:03.914Z,3.50
2018-12-05T22:09:31.443Z,4.30
2018-12-05T22:11:58.945Z,3.43
2018-12-05T22:14:26.446Z,3.60
2018-12-05T22:16:53.947Z,4.00
2018-12-05T22:19:21.459Z,3.90
2018-12-05T22:21:49.097Z,3.30
2018-12-05T22:24:16.605Z,3.77
2018-12-05T22:26:44.094Z,3.70
2018-12-05T22:29:11.595Z,3.70
2018-12-05T22:31:39.153Z,3.83
2018-12-05T22:34:06.858Z,3.13
2018-12-05T22:36:34.366Z,3.50
2018-12-05T22:39:01.894Z,3.73
2018-12-05T22:41:29.394Z,4.33
2018-12-05T22:43:56.900Z,4.10
2018-12-05T22:46:24.418Z,4.30
2018-12-05T22:48:51.915Z,3.93
2018-12-05T22:51:19.438Z,3.87
2018-12-05T22:53:46.954Z,3.90
2018-12-05T22:56:14.467Z,4.10
2018-12-05T22:58:41.973Z,4.03
2018-12-05T23:01:09.571Z,3.77
2018-12-05T23:03:37.092Z,4.20
2018-12-05T23:06:04.610Z,3.80
2018-12-05T23:08:32.095Z,4.57
2018-12-05T23:10:59.612Z,4.10
2018-12-05T23:13:27.108Z,3.90
2018-12-05T23:15:54.603Z,3.67
2018-12-05T23:18:22.173Z,3.40
2018-12-05T23:20:49.678Z,3.73
2018-12-05T23:23:18.596Z,4.47
2018-12-05T23:25:46.106Z,4.10
2018-12-05T23:28:13.618Z,3.60
2018-12-05T23:30:41.125Z,3.53
2018-12-05T23:33:08.630Z,4.00
2018-12-05T23:35:36.127Z,3.80
2018-12-05T23:38:03.637Z,3.50
2018-12-05T23:40:31.138Z,3.53
2018-12-05T23:42:58.744Z,3.73
2018-12-05T23:45:26.521Z,3.73
2018-12-05T23:47:54.027Z,3.70
2018-12-05T23:50:21.545Z,4.07
2018-12-05T23:52:49.057Z,4.13
2018-12-05T23:55:16.560Z,3.90
2018-12-05T23:57:44.082Z,4.20
